Date,TemperatureHighF,TemperatureAvgF,TemperatureLowF,DewpointHighF,DewpointAvgF,DewpointLowF,HumidityHigh,HumidityAvg,HumidityLow,PressureMaxIn,PressureMinIn,WindSpeedMaxMPH,WindSpeedAvgMPH,GustSpeedMaxMPH,PrecipitationSumIn
2013-8-1,85,73,65,69,62,55,94,72,39,30.03,29.96,5,0,5,0.01
2013-8-2,86,72,59,67,62,56,89,71,50,30.02,29.94,6,0,6,0.00
2013-8-3,81,72,67,69,65,57,96,80,52,30.10,29.95,4,0,4,0.65
2013-8-4,78,68,59,60,57,53,84,69,50,30.20,30.09,1,0,1,0.00
2013-8-5,84,69,60,64,60,57,90,74,47,30.15,29.97,0,0,0,0.01
2013-8-6,79,72,65,72,66,60,89,83,77,29.99,29.92,0,0,0,0.00
2013-8-7,86,76,70,75,71,68,95,86,65,29.94,29.86,0,0,0,0.23
2013-8-8,83,75,71,76,72,70,97,91,75,29.96,29.90,0,0,0,0.01
2013-8-9,83,74,69,70,68,65,96,83,59,30.06,29.93,0,0,0,0.79
2013-8-10,84,75,68,70,67,64,93,78,56,30.13,30.05,0,0,0,0.00
2013-8-11,85,75,68,70,66,63,94,77,52,30.12,30.06,0,0,0,0.00
2013-8-12,86,75,66,70,66,64,93,76,50,30.10,29.89,0,0,0,0.00
2013-8-13,76,69,60,68,60,50,89,73,51,30.12,29.88,5,0,5,0.00
2013-8-14,69,61,53,53,50,47,86,69,53,30.24,30.12,1,0,2,0.00
2013-8-15,70,63,52,56,53,50,91,72,55,30.23,30.14,0,0,0,0.00
2013-8-16,73,65,58,58,56,53,89,74,55,30.21,30.15,0,0,0,0.00
2013-8-17,78,68,58,62,58,54,87,71,54,30.24,30.16,3,0,3,0.00
2013-8-18,81,70,59,65,60,56,92,72,52,30.22,30.11,0,0,0,0.00
2013-8-19,84,72,60,66,62,57,91,73,52,30.17,30.08,0,0,0,0.00
2013-8-20,87,75,63,68,65,60,92,73,50,30.18,30.08,0,0,0,0.00
2013-8-21,87,77,68,72,68,65,92,76,55,30.16,30.05,0,0,0,0.00
2013-8-22,85,75,69,71,68,66,91,79,60,30.11,30.02,5,0,5,0.00
2013-8-23,82,73,67,69,66,62,93,81,60,30.17,30.08,0,0,0,0.00
2013-8-24,86,72,60,63,59,54,91,65,36,30.29,30.17,0,0,0,0.00
2013-8-25,88,75,61,65,62,58,92,67,43,30.34,30.22,0,0,0,0.00
2013-8-26,88,77,65,74,67,60,92,73,53,30.25,30.08,3,0,3,0.00
2013-8-27,92,82,73,75,72,70,91,75,51,30.10,29.95,3,0,3,0.00
2013-8-28,92,83,77,77,73,69,85,73,58,29.99,29.90,4,0,4,0.00
2013-8-29,87,78,72,73,70,67,94,78,55,30.06,29.98,0,0,0,0.00
2013-8-30,92,80,67,74,70,65,94,73,51,30.00,29.83,6,0,6,0.12
2013-8-31,90,75,70,75,70,68,96,86,51,29.87,29.77,5,0,5,0.36